Date,TemperatureHighF,TemperatureAvgF,TemperatureLowF,DewpointHighF,DewpointAvgF,DewpointLowF,HumidityHigh,HumidityAvg,HumidityLow,PressureMaxIn,PressureMinIn,WindSpeedMaxMPH,WindSpeedAvgMPH,GustSpeedMaxMPH,PrecipitationSumIn
2012-1-1,79.8,62.9,50.3,65.6,55.1,47.9,94,78,44,30.19,30.05,5,1,7,0.00
2012-1-2,69.9,56.6,44.0,61.5,48.3,36.5,94,76,38,30.12,29.99,8,2,11,0.01
2012-1-3,49.8,41.9,32.5,38.6,27.1,15.4,91,59,28,30.28,30.07,11,4,19,0.00
2012-1-4,60.5,48.0,35.0,41.4,34.0,30.9,85,62,34,30.24,30.20,2,0,5,0.04
2012-1-5,68.2,48.4,29.0,50.9,40.1,25.6,92,75,50,30.23,30.08,7,2,10,0.15
2012-1-6,73.5,52.3,36.4,58.1,45.4,33.7,94,79,49,30.17,30.03,3,0,5,0.06
2012-1-7,76.8,57.1,42.2,58.4,48.7,39.8,94,76,43,30.13,30.01,4,0,5,0.04
2012-1-8,78.7,59.9,43.0,57.9,50.5,40.2,94,74,44,30.16,30.05,3,0,7,0.01
2012-1-9,80.5,62.3,46.1,63.7,55.3,43.6,94,79,52,30.13,29.99,5,1,7,0.01
2012-1-10,80.1,64.2,51.6,64.1,56.3,48.8,94,78,52,30.03,29.85,8,2,10,0.00
2012-1-11,74.3,65.3,55.9,67.0,61.2,52.7,93,87,73,29.89,29.70,14,4,16,0.90
2012-1-12,78.4,64.4,51.8,65.2,57.5,49.3,94,80,52,29.88,29.76,9,2,12,0.24
2012-1-13,67.5,57.9,48.6,58.9,47.2,38.5,93,70,36,30.15,29.88,6,3,9,0.31
2012-1-14,60.8,49.0,37.1,41.6,36.3,29.7,86,64,31,30.29,30.15,7,2,10,0.51
2012-1-15,69.2,49.2,32.4,49.2,38.6,29.0,93,71,35,30.35,30.24,7,2,8,0.68
2012-1-16,73.1,55.2,37.6,54.8,46.5,33.4,91,74,50,30.35,30.22,10,3,14,0.00
2012-1-17,79.7,59.6,43.0,61.0,51.1,40.0,94,76,50,30.25,30.07,10,2,13,0.00
2012-1-18,78.4,61.1,45.8,63.8,55.2,43.3,94,83,56,30.08,29.90,9,2,12,0.07
2012-1-19,71.9,59.1,42.6,61.4,46.4,34.3,92,68,27,30.10,29.94,7,2,11,0.00
2012-1-20,78.3,58.3,39.7,58.2,48.0,36.7,93,72,42,30.12,30.00,7,2,9,0.00
2012-1-21,80.8,60.8,44.6,61.4,52.1,41.8,94,76,45,30.07,29.93,7,2,8,0.00
2012-1-22,80.2,62.0,43.8,64.4,52.9,41.1,94,75,43,30.06,29.97,4,0,6,0.00
2012-1-23,83.5,67.0,54.0,67.9,60.4,51.7,94,81,52,30.05,29.94,7,1,7,0.51
2012-1-24,83.5,67.7,56.5,67.9,60.9,53.7,94,80,53,30.08,29.98,8,1,13,0.45
2012-1-25,82.8,70.0,58.7,68.1,61.1,56.4,94,76,43,30.08,29.97,9,2,12,0.01
2012-1-26,84.0,69.9,58.2,68.7,62.3,54.9,94,79,52,30.02,29.86,11,3,17,0.36
2012-1-27,72.8,66.3,61.0,67.9,63.1,57.7,93,90,83,29.98,29.86,8,2,15,0.19
2012-1-28,72.9,60.8,48.6,59.8,54.0,46.1,94,80,57,30.09,29.97,7,1,10,0.00
2012-1-29,74.2,61.8,54.2,57.5,51.5,45.9,92,72,37,30.21,30.08,7,2,11,0.37
2012-1-30,74.4,60.4,47.8,55.0,50.3,44.8,90,72,41,30.26,30.17,9,3,13,0.00
2012-1-31,78.3,63.6,52.1,59.7,54.1,49.1,90,73,46,30.25,30.11,8,3,13,0.36
2012-2-1,81.2,64.6,50.9,64.5,57.0,48.4,93,78,49,30.17,30.03,7,1,8,0.24
2012-2-2,82.8,67.3,54.1,68.5,59.4,51.2,94,78,51,30.08,29.97,4,0,6,0.00
2012-2-3,74.9,67.3,60.7,65.1,61.8,58.4,93,83,67,30.13,30.05,8,3,15,0.21
2012-2-4,81.6,69.5,60.9,66.6,62.3,58.5,93,79,54,30.09,29.95,9,2,15,0.29
2012-2-5,83.0,71.1,62.7,69.5,64.1,60.6,94,80,53,29.99,29.87,5,1,10,0.00
2012-2-6,81.4,68.7,60.5,70.5,64.0,57.8,94,85,66,30.00,29.89,10,1,13,0.00
2012-2-7,76.2,68.5,64.1,69.3,65.0,61.4,93,89,78,29.97,29.87,6,2,10,0.06
2012-2-8,79.1,67.1,59.1,65.0,60.4,54.3,93,80,55,30.01,29.90,7,3,11,0.40
2012-2-9,74.7,63.2,52.0,62.2,56.1,48.2,92,78,64,30.07,29.96,6,2,12,0.00
2012-2-10,83.4,68.9,56.6,69.9,62.8,53.8,94,82,60,30.02,29.78,8,2,8,0.27
2012-2-11,66.1,59.6,49.5,61.7,52.9,40.1,93,79,59,30.02,29.79,12,5,16,0.06
2012-2-12,54.0,43.3,35.0,39.7,27.0,20.8,89,55,31,30.24,30.03,8,4,12,0.46
2012-2-13,69.6,50.0,33.9,50.2,40.6,30.2,91,73,46,30.18,30.01,6,1,7,1.36
2012-2-14,78.8,61.1,43.3,60.6,52.6,40.3,94,76,52,30.03,29.94,9,2,10,0.01
2012-2-15,85.7,66.9,50.9,64.5,57.5,48.5,94,75,44,30.11,30.00,6,1,8,0.00
2012-2-16,84.6,69.0,56.4,67.8,60.9,53.8,94,77,47,30.09,29.97,10,3,13,0.00
2012-2-17,78.1,67.7,59.1,68.7,63.4,56.3,94,86,71,30.00,29.90,6,1,8,0.00
2012-2-18,67.0,66.6,66.2,64.6,64.2,63.8,92,92,92,29.92,29.90,0,0,0,0.00
2012-3-6,62.9,61.7,60.7,56.9,56.2,55.7,84,82,80,30.29,30.28,2,1,7,0.02
2012-3-7,82.0,68.6,57.6,64.3,59.2,53.5,91,74,48,30.28,30.16,10,4,19,0.00
2012-3-8,83.7,70.9,62.0,69.2,64.4,59.4,94,81,58,30.21,30.06,10,3,20,0.02
2012-3-9,87.8,71.6,61.4,71.3,66.0,58.7,94,83,53,30.11,29.98,6,1,10,0.02
2012-3-10,83.3,71.5,64.0,70.1,66.0,61.9,94,84,60,30.11,30.00,8,2,12,0.01
2012-3-11,80.1,70.9,66.5,69.4,66.0,64.1,93,85,64,30.17,30.07,9,3,18,0.01
2012-3-12,81.4,71.0,62.9,65.6,62.4,58.7,92,76,54,30.18,30.08,10,3,19,0.00
2012-3-13,82.7,69.1,57.5,64.0,60.5,54.9,93,76,51,30.16,30.05,6,1,15,0.00
2012-3-14,83.3,68.6,54.8,65.8,60.5,51.8,93,77,51,30.14,30.03,6,1,15,0.00
2012-3-15,83.2,70.1,59.7,68.1,62.7,56.8,93,79,54,30.15,30.04,7,2,16,0.00
2012-3-16,83.6,70.1,59.4,66.5,61.8,56.5,93,77,48,30.14,30.02,6,1,18,0.00
2012-3-17,83.9,68.9,53.6,65.5,58.0,50.4,93,71,44,30.14,30.02,6,1,16,0.00
2012-3-18,84.3,67.5,51.7,67.0,59.1,48.6,93,76,51,30.15,30.02,7,2,16,0.00
2012-3-19,83.7,68.2,53.4,64.8,58.8,50.2,93,74,48,30.09,29.96,7,2,15,0.01
2012-3-20,82.7,69.6,58.1,67.0,61.5,54.3,93,77,55,30.02,29.92,8,2,16,0.35
2012-3-21,84.2,71.7,60.0,70.4,64.7,57.4,94,80,57,30.05,29.92,9,3,21,0.55
2012-3-22,83.0,70.6,64.3,70.2,64.9,61.9,93,83,63,30.06,29.96,9,1,18,0.22
2012-3-23,88.0,73.1,59.9,69.5,64.5,56.8,93,77,45,30.03,29.90,4,1,11,0.22
2012-3-24,87.5,72.0,60.2,69.2,64.4,57.3,94,79,52,29.94,29.81,9,3,21,0.18
2012-3-25,82.7,71.7,60.5,70.3,62.6,52.9,93,75,44,29.85,29.72,10,4,18,0.16
2012-3-26,83.7,66.0,49.9,63.4,54.7,47.1,94,70,36,29.93,29.81,6,1,13,0.08
2012-3-27,85.1,67.2,50.9,65.9,55.4,-99.9,93,71,34,30.08,29.92,7,-8,17,0.06
2012-3-28,84.9,70.9,56.8,66.4,60.6,53.7,93,72,46,30.09,29.94,7,2,18,0.07
2012-3-29,86.0,70.0,55.1,66.6,60.3,51.9,94,74,42,29.99,29.86,5,0,12,0.08
2012-3-30,86.8,70.1,56.4,66.8,61.0,53.5,93,75,42,29.97,29.87,6,1,14,0.09
2012-3-31,85.7,70.0,58.5,70.9,64.1,55.7,94,83,57,29.91,29.78,12,3,23,0.09
2012-4-1,84.3,71.8,60.2,70.3,64.2,57.9,94,79,54,29.86,29.75,6,2,13,0.08
2012-4-2,89.0,71.3,59.4,70.7,62.7,56.5,94,78,38,29.86,29.74,7,1,9,0.07
2012-4-4,90.7,76.8,66.9,69.4,65.6,62.2,88,70,43,29.77,29.70,7,3,15,0.07
2012-4-5,85.7,73.8,65.5,70.8,65.4,60.1,93,77,48,29.79,29.63,9,3,18,0.12
2012-4-6,84.0,71.5,61.5,70.0,62.8,55.8,94,76,46,29.86,29.65,11,4,22,0.06
2012-4-7,81.2,68.1,58.0,63.9,58.2,53.7,89,72,51,30.05,29.87,7,3,19,0.04
2012-4-8,82.5,67.7,54.2,61.6,55.9,50.7,91,69,43,30.08,29.95,5,1,17,0.03
2012-4-9,86.0,68.4,52.8,67.9,57.6,49.3,93,71,37,30.01,29.87,2,0,8,0.02
2012-4-10,86.6,69.4,53.9,67.1,59.9,51.3,94,74,42,29.99,29.86,5,0,11,0.00
2012-4-11,85.7,70.4,56.6,66.9,60.3,53.4,93,73,41,29.97,29.85,6,1,12,0.01
2012-4-12,83.5,70.0,56.8,63.0,58.1,52.5,92,69,37,29.97,29.88,6,1,14,0.02
2012-4-13,83.9,71.5,59.8,67.6,62.4,56.3,93,75,49,30.02,29.91,6,2,13,0.01
2012-4-14,80.2,71.3,64.6,66.5,63.6,61.0,92,78,59,30.13,30.00,10,3,21,0.02
2012-4-15,83.6,71.4,59.0,65.7,61.3,56.1,92,73,47,30.11,30.04,8,2,13,0.04
2012-4-16,83.7,71.2,59.0,67.1,61.1,56.1,93,73,45,30.11,30.01,8,2,16,0.00
2012-4-17,84.6,70.8,54.6,66.7,61.2,52.0,94,74,46,30.08,29.93,8,2,15,0.04
2012-4-18,86.0,71.7,57.2,68.3,62.7,54.0,93,75,50,30.01,29.84,7,2,15,0.00
2012-4-19,83.9,71.0,62.8,72.6,67.0,59.5,93,88,61,29.91,29.78,9,1,16,0.08
2012-4-20,70.7,67.3,64.3,67.9,64.8,61.9,94,92,91,29.83,29.78,3,0,12,0.01
2012-4-21,78.9,69.7,66.1,69.7,65.5,63.1,93,87,71,29.77,29.54,9,4,22,1.99
2012-4-22,66.3,64.4,62.8,61.3,60.0,58.9,87,86,84,29.66,29.65,1,0,8,0.08
2012-4-23,70.1,61.0,53.6,58.8,51.5,48.2,88,72,49,29.84,29.66,10,2,19,0.10
2012-4-24,72.7,59.4,46.7,53.2,44.7,38.2,89,62,30,29.96,29.82,8,3,15,0.18
2012-4-25,80.1,62.2,42.0,65.5,50.3,38.7,93,68,37,30.02,29.95,4,1,8,0.14
2012-4-26,85.5,67.8,49.3,67.1,57.5,46.2,93,72,43,30.06,29.93,4,1,11,0.33
2012-4-27,86.0,64.5,52.9,69.5,59.2,49.7,89,84,50,30.01,29.92,1,0,9,0.19
2012-4-28,77.4,66.9,61.3,70.0,63.0,58.7,93,88,78,29.99,29.94,0,0,6,0.24
2012-4-29,84.3,73.4,66.3,73.0,68.3,63.0,93,85,66,30.00,29.92,8,2,21,0.44
2012-4-30,85.1,74.8,66.4,70.6,67.2,63.7,93,78,55,30.00,29.91,10,4,21,0.26
2012-5-1,88.2,76.6,68.8,71.9,68.9,65.6,91,78,54,29.98,29.88,9,4,21,0.14
2012-5-2,88.1,76.9,67.8,73.4,69.4,65.6,93,79,58,29.99,29.91,8,3,19,0.45
2012-5-3,89.2,77.5,66.3,73.0,67.8,63.3,93,74,47,30.01,29.90,7,2,17,0.14
2012-5-4,87.7,75.3,64.9,71.9,67.4,61.4,93,78,54,30.00,29.89,6,1,12,0.50
2012-5-5,90.4,77.2,63.7,75.7,67.3,60.1,93,73,47,29.93,29.80,6,1,11,0.11
2012-5-6,91.0,76.6,64.0,72.8,67.8,61.0,93,76,47,29.89,29.76,7,1,14,0.48
2012-5-7,91.7,75.4,65.0,72.3,66.6,61.4,93,76,42,29.84,29.73,7,2,14,0.09
2012-5-8,89.8,74.9,62.5,73.0,66.8,59.5,93,78,50,29.83,29.72,7,2,12,0.23
2012-5-9,89.7,76.1,63.9,72.9,68.1,60.8,93,78,54,29.80,29.68,10,3,20,0.25
2012-5-10,89.2,76.1,67.7,72.6,67.1,58.1,93,75,51,29.83,29.68,7,2,18,0.60
2012-5-11,89.5,75.9,64.7,71.8,65.5,60.5,92,72,51,30.02,29.81,8,3,18,0.00
2012-5-12,87.4,75.4,64.2,72.2,65.7,60.6,91,73,52,30.07,29.97,8,3,18,0.19
2012-5-13,86.8,74.7,62.1,73.1,66.1,58.8,92,76,53,30.03,29.90,7,2,14,0.46
2012-5-14,88.3,62.6,69.9,72.3,35.5,-99.9,91,60,53,29.97,29.82,6,-196,13,0.09
2012-5-15,88.6,40.4,67.5,74.9,-6.7,-99.9,93,48,64,29.94,29.83,4,-447,9,0.03
2012-5-16,81.4,39.8,69.7,74.3,-10.0,-99.9,93,45,74,29.93,29.82,5,-473,8,0.10
2012-5-17,88.8,76.9,68.9,74.0,69.6,66.8,94,80,54,29.87,29.74,6,2,14,0.51
2012-5-18,89.6,77.0,64.7,75.9,68.0,61.7,93,76,48,29.84,29.75,7,1,13,0.02
2012-5-19,88.8,75.7,66.1,73.0,68.3,63.1,93,79,48,29.90,29.76,8,2,12,0.28
2012-5-20,89.8,76.9,66.0,72.1,66.0,57.8,92,72,39,29.90,29.78,6,2,17,0.75
2012-5-21,90.2,76.3,60.9,69.7,60.9,55.0,92,63,31,29.91,29.79,4,1,11,0.27
2012-5-22,91.1,76.5,61.5,73.4,64.7,57.0,92,70,32,29.87,29.75,8,1,13,0.62
2012-5-23,91.6,77.4,64.4,73.3,68.5,61.4,93,76,45,29.83,29.70,9,1,18,0.22
2012-5-24,91.1,78.1,68.6,75.4,70.9,65.4,93,79,54,29.83,29.72,7,2,13,0.60
2012-5-25,92.6,79.1,66.8,74.7,70.6,63.8,93,77,53,29.94,29.80,7,2,14,0.35
2012-5-26,93.2,79.3,66.7,73.6,68.8,63.0,93,73,43,29.96,29.83,6,2,14,0.39
2012-5-27,90.5,78.5,67.6,74.1,69.4,63.9,92,75,54,29.89,29.70,11,3,23,0.00
2012-5-28,91.7,81.3,71.3,77.0,70.8,65.4,92,73,44,29.85,29.75,11,5,21,0.14
2012-5-29,89.2,78.6,70.0,76.1,71.0,66.9,93,79,54,29.85,29.76,9,3,18,0.04
2012-5-30,81.2,77.7,75.7,73.7,72.4,71.5,87,84,78,29.82,29.76,1,0,10,0.42
2012-5-31,92.0,79.6,69.3,76.6,71.3,66.3,93,77,54,29.84,29.74,8,2,15,0.04
2012-6-1,80.9,73.4,69.2,73.4,69.7,66.1,93,89,75,29.85,29.76,8,2,12,1.51
2012-6-2,89.3,78.7,70.6,75.3,71.8,68.5,93,81,58,29.88,29.79,9,3,17,0.01
2012-6-3,91.5,79.3,65.7,75.5,70.1,62.7,93,75,54,29.95,29.84,5,1,10,0.00
2012-6-4,89.2,78.1,66.6,76.2,71.0,63.6,93,80,60,29.90,29.75,8,3,15,0.44
2012-6-5,86.4,79.2,72.2,76.3,73.3,68.1,93,83,67,29.81,29.70,11,3,18,0.04
2012-6-6,86.8,75.8,71.5,77.6,71.3,68.0,93,87,68,29.83,29.74,11,2,22,0.06
2012-6-7,82.8,76.2,72.7,78.2,73.2,69.9,93,91,82,29.88,29.80,5,1,8,0.60
2012-6-8,72.6,72.4,72.2,70.5,70.3,70.1,93,93,93,29.90,29.86,1,0,8,0.32
2012-6-9,94.0,79.5,70.2,79.2,73.1,68.1,94,82,58,29.94,29.81,8,2,15,0.18
2012-6-10,94.3,80.5,72.2,79.4,73.4,68.9,94,81,56,30.06,29.89,12,2,26,0.04
2012-6-11,93.1,80.6,68.1,78.3,72.5,65.7,93,78,59,30.06,29.93,6,1,12,0.04
2012-6-13,92.5,84.3,75.3,77.6,74.4,70.1,84,73,56,29.86,29.76,5,2,15,0.20
2012-6-14,93.0,78.0,69.5,77.6,71.7,66.4,93,82,57,29.90,29.79,7,1,17,0.10
2012-6-15,76.8,73.1,72.2,70.9,69.6,68.8,91,89,82,29.94,29.91,6,1,14,0.04
2012-6-16,88.1,78.7,71.2,74.7,70.3,66.1,93,77,52,29.95,29.87,9,3,17,0.25
2012-6-17,88.1,77.2,66.1,71.6,67.2,62.8,93,73,50,29.96,29.83,7,2,13,0.03
2012-6-18,88.9,76.6,65.3,71.2,66.4,62.0,92,73,48,29.96,29.86,7,2,16,0.02
2012-6-19,87.4,76.3,66.7,71.2,67.2,63.0,90,75,51,29.96,29.90,8,3,19,0.46
2012-6-20,85.2,77.1,72.9,76.2,71.8,68.2,92,84,73,29.93,29.86,9,2,17,0.35
2012-6-21,89.8,77.6,72.3,78.3,73.0,69.8,93,86,65,29.89,29.77,8,2,14,0.66
2012-6-28,92.5,90.8,86.9,76.8,71.3,69.2,70,53,47,29.96,29.90,4,1,4,0.00
2012-6-29,91.8,84.9,71.5,75.4,72.3,67.6,93,67,55,29.95,29.83,4,2,5,0.00
2012-6-30,73.3,72.8,72.4,68.5,68.0,67.6,85,85,85,29.88,29.88,0,0,0,0.00
2012-7-2,94.4,90.2,85.5,78.2,76.5,74.6,79,65,54,29.99,29.88,9,3,14,0.00
2012-7-5,94.4,82.5,69.8,76.7,72.3,67.1,93,73,51,29.97,29.87,9,1,11,0.00
2012-7-6,93.6,81.5,70.5,79.7,73.5,67.7,93,78,53,29.95,29.89,7,1,7,0.71
2012-7-9,94.6,86.7,76.8,78.2,75.0,72.3,87,69,53,29.94,29.85,7,1,10,0.51
2012-7-10,91.8,78.1,71.3,77.9,72.8,67.9,93,85,61,29.94,29.85,7,1,12,0.99
2012-7-11,86.9,77.1,70.6,78.2,72.9,68.5,94,87,73,29.95,29.84,6,1,7,0.01
2012-7-12,91.1,79.6,71.1,77.8,73.3,68.3,93,82,60,29.93,29.84,8,1,14,0.01
2012-7-13,92.0,80.4,73.2,79.9,74.2,70.7,93,82,61,29.96,29.87,10,2,11,0.02
2012-7-14,91.0,79.9,72.0,77.6,73.6,69.5,93,82,59,29.99,29.90,7,2,13,0.41
2012-7-15,90.2,78.3,72.5,77.1,72.8,70.0,93,84,61,30.00,29.91,8,1,8,0.27
2012-7-16,87.5,77.0,70.8,77.4,72.3,68.4,93,86,70,29.99,29.87,8,1,8,0.05
2012-7-17,87.2,78.1,72.4,76.7,73.0,69.8,93,85,69,29.94,29.86,7,2,10,0.05
2012-7-18,93.6,78.6,71.1,78.4,72.7,68.3,93,83,53,30.02,29.90,5,1,8,0.18
2012-7-19,94.4,80.7,71.5,81.1,74.2,69.0,93,82,59,30.07,29.98,6,1,7,0.60
2012-7-20,96.7,82.9,71.2,79.5,73.9,68.4,93,76,47,30.02,29.91,5,1,8,0.49
2012-7-21,96.0,82.2,72.9,79.1,74.2,69.9,93,78,51,30.01,29.92,11,2,13,0.53
2012-7-22,90.1,77.5,72.5,80.8,73.6,69.4,93,88,70,30.05,29.91,11,1,14,1.45
2012-7-23,90.3,76.1,72.1,80.5,73.0,70.0,94,90,73,30.07,29.98,7,1,9,0.71
2012-7-24,91.1,80.3,72.0,80.9,74.9,69.9,94,84,67,30.05,29.92,6,1,8,0.01
2012-7-25,92.9,82.3,72.8,80.5,75.2,69.7,93,80,61,29.95,29.87,7,2,10,0.21
2012-7-26,94.2,81.8,72.3,80.4,74.7,69.5,93,80,56,29.95,29.87,6,2,7,0.46
2012-7-27,92.8,79.8,71.6,79.2,74.2,68.5,93,84,60,29.99,29.89,8,1,13,0.25
2012-7-28,93.4,81.0,72.9,79.4,74.8,70.1,93,82,58,30.01,29.91,7,1,8,0.19
2012-7-29,92.4,81.6,72.5,78.9,74.8,69.7,93,81,60,29.98,29.88,6,1,8,0.13
2012-7-30,93.3,80.4,71.0,78.6,73.3,68.2,93,80,56,29.95,29.87,7,2,8,0.05
2012-7-31,91.4,79.5,69.7,80.0,73.3,67.0,93,82,62,29.95,29.85,7,1,14,0.05
2012-8-1,92.5,79.9,69.9,78.4,73.7,67.2,93,82,57,29.92,29.83,7,2,14,0.19
2012-8-2,93.8,80.5,70.4,78.8,73.3,67.6,93,80,58,29.91,29.80,9,1,14,0.23
2012-8-3,95.2,77.8,70.7,78.7,71.9,68.3,93,83,53,29.93,29.83,10,1,20,0.33
2012-8-4,94.1,81.0,70.8,78.0,73.5,68.0,94,79,52,29.94,29.85,5,1,7,0.12
2012-8-5,95.5,80.9,72.5,78.9,74.4,69.7,92,82,55,30.00,29.91,7,2,10,0.61
2012-8-6,94.5,80.5,74.4,80.9,75.0,71.6,93,84,63,30.00,29.86,10,2,11,0.07
2012-8-7,95.0,82.2,72.6,79.5,74.5,70.1,93,79,53,29.93,29.85,5,1,7,0.00
2012-8-8,96.4,84.5,74.3,81.7,75.7,70.9,92,76,55,29.95,29.86,6,1,10,0.25
2012-8-9,97.8,81.8,70.7,79.6,74.2,67.7,93,79,51,29.93,29.80,11,1,11,0.33
2012-8-10,95.3,79.1,72.3,79.8,73.6,69.7,93,84,55,29.90,29.83,9,1,13,0.45
2012-8-11,89.3,79.1,73.7,78.0,74.4,71.2,93,86,67,29.94,29.83,4,1,7,0.01
2012-8-12,87.4,77.4,72.8,81.0,74.0,70.3,93,89,73,29.97,29.87,6,0,6,0.54
2012-8-13,91.8,80.0,71.4,80.5,75.1,69.2,94,86,64,29.98,29.89,5,0,7,0.17
2012-8-14,94.8,79.3,71.5,80.3,73.7,69.0,94,84,58,29.95,29.85,9,1,13,0.21
2012-8-15,95.1,81.2,72.1,79.3,74.6,69.3,94,82,57,29.95,29.85,5,0,5,0.30
2012-8-16,91.5,80.6,72.4,82.4,75.4,69.6,93,85,74,29.98,29.89,4,0,4,0.14
2012-8-17,90.9,79.7,72.6,80.0,75.2,69.8,93,86,66,29.95,29.84,6,1,11,0.04
2012-8-18,86.5,78.6,73.8,78.9,74.4,71.3,93,87,74,29.89,29.78,6,1,9,0.03
2012-8-19,93.3,82.0,73.2,81.4,75.6,70.4,93,82,62,29.89,29.79,10,3,16,0.03
2012-8-20,94.5,82.5,72.9,80.2,74.8,70.0,93,79,54,29.93,29.78,10,3,13,0.06
2012-8-21,93.8,79.5,70.9,80.2,72.9,68.3,93,82,58,30.03,29.87,11,3,11,0.04
2012-8-22,91.5,75.8,70.9,78.6,71.6,68.5,93,88,61,30.00,29.90,9,1,10,0.02
2012-8-23,93.8,80.2,68.5,79.1,72.2,66.1,94,78,55,30.00,29.90,6,0,6,0.02
2012-8-24,92.2,80.6,71.2,78.8,73.5,68.1,93,80,59,29.98,29.83,6,1,7,0.02
2012-8-25,88.1,78.9,68.9,76.2,71.5,66.2,92,79,62,29.92,29.83,7,2,9,0.00
2012-8-26,83.3,78.0,74.8,77.6,74.3,72.3,92,89,81,29.87,29.69,8,4,14,0.00
2012-8-27,84.7,78.5,75.1,79.5,75.5,72.8,93,91,84,29.71,29.63,8,4,14,0.02
2012-8-29,93.6,81.5,74.7,79.6,75.9,71.9,93,84,63,29.89,29.82,7,2,10,0.02
2012-8-30,92.8,81.5,74.2,80.4,69.6,-99.9,93,74,63,30.02,29.87,2,-41,5,0.02
2012-8-31,93.5,82.9,73.7,79.4,75.5,71.2,93,80,59,30.07,29.98,3,0,6,0.02
2012-9-1,92.8,82.4,74.5,79.1,74.1,70.0,93,78,52,30.05,29.94,6,1,8,0.02
2012-9-2,91.6,79.0,66.2,74.3,69.2,63.2,93,74,44,29.99,29.87,5,1,8,0.00
2012-9-3,93.2,78.3,65.5,76.9,69.0,61.4,93,76,35,29.96,29.86,3,0,7,0.02
2012-9-4,94.9,79.9,69.9,78.0,72.0,67.2,93,79,47,29.93,29.82,6,1,10,0.00
2012-9-5,92.9,76.8,69.1,79.3,71.5,66.0,93,85,60,29.91,29.81,12,1,20,0.01
2012-9-6,92.8,75.9,70.1,79.4,71.7,67.8,93,87,58,29.92,29.85,11,1,18,0.01
2012-9-7,93.5,62.5,70.4,78.8,33.5,-99.9,93,61,58,29.91,29.80,7,-224,9,0.02
2012-9-10,87.1,77.8,72.6,78.7,73.8,69.8,93,88,73,29.93,29.85,6,1,7,0.01
2012-9-11,88.9,78.8,72.9,78.4,73.5,70.3,93,84,68,30.02,29.91,7,2,12,0.01
2012-9-12,89.3,77.7,71.2,76.7,72.0,68.1,91,83,64,30.02,29.94,5,1,8,0.01
2012-9-13,87.3,72.7,72.8,77.8,60.4,-99.9,91,78,68,30.00,29.90,5,-72,7,0.01
2012-9-14,89.4,78.2,72.6,77.9,73.4,70.1,92,86,68,29.97,29.88,6,1,8,0.06
2012-9-15,89.4,78.1,73.7,77.0,73.6,71.2,93,86,67,29.97,29.89,4,1,5,0.05
2012-9-16,89.3,78.2,73.5,77.4,73.0,70.7,92,85,63,29.95,29.88,7,1,9,0.12
2012-9-17,90.6,78.7,71.7,78.1,73.4,69.3,93,85,65,29.92,29.80,5,1,5,0.50
2012-9-18,87.5,76.4,72.9,79.8,73.2,70.4,93,90,74,29.89,29.80,10,2,11,0.09
2012-9-19,88.6,78.9,72.1,78.8,74.0,70.0,94,86,69,29.95,29.83,6,1,9,0.08
2012-9-20,90.5,79.2,72.4,78.2,73.4,69.3,93,83,65,29.94,29.83,5,0,9,0.04
2012-9-21,90.7,74.5,71.0,76.8,66.1,-99.9,93,82,62,29.92,29.81,5,-31,6,0.00
2012-9-22,75.4,72.6,71.5,73.2,70.2,69.1,93,92,91,29.94,29.85,1,0,1,0.01
2012-9-23,92.4,79.5,70.8,76.9,71.6,68.7,94,79,50,29.98,29.89,3,0,4,0.01
2012-9-24,84.1,74.8,68.6,70.4,67.1,59.8,92,78,44,30.01,29.92,3,0,6,0.00
2012-9-25,87.4,74.7,66.9,73.8,66.7,-99.9,89,79,63,30.00,29.92,2,-10,4,0.00
2012-9-26,90.5,74.1,68.6,77.1,67.3,-99.9,93,84,63,30.01,29.93,8,-20,8,0.00
2012-9-27,92.6,79.7,70.2,76.8,72.1,67.8,94,79,53,30.01,29.89,2,0,6,0.00
2012-9-28,91.4,79.5,70.7,77.2,72.5,67.9,93,80,57,29.96,29.82,3,0,5,0.00
2012-9-29,92.2,78.6,70.2,77.6,72.2,67.4,93,82,55,29.89,29.74,4,0,5,0.00
2012-9-30,92.4,80.1,70.7,78.9,73.5,68.2,93,82,60,29.80,29.67,4,1,6,0.00
2012-10-1,90.4,83.6,75.7,79.1,75.7,72.6,90,78,64,29.73,29.63,8,3,13,0.00
2012-10-2,88.2,76.4,71.8,79.4,73.1,69.3,93,90,73,29.94,29.73,6,2,9,0.00
2012-10-3,92.3,77.9,71.7,80.1,73.9,69.3,94,88,65,30.07,29.93,7,1,8,0.00
2012-10-4,91.3,76.9,72.1,81.4,73.3,69.9,94,89,66,30.07,29.96,9,1,9,0.00
2012-10-5,92.4,78.1,71.7,79.5,73.4,69.6,94,86,62,30.03,29.83,6,1,10,0.64
2012-10-6,89.3,77.9,72.5,78.7,73.4,69.2,94,87,64,29.90,29.75,8,0,8,0.00
2012-10-7,88.7,76.5,69.8,76.9,71.7,67.4,94,86,66,29.90,29.81,8,1,11,0.00
2012-10-8,88.7,78.1,71.2,78.9,73.4,68.1,93,86,70,29.93,29.82,5,0,8,0.00
2012-10-9,89.0,78.4,69.2,77.4,72.3,66.6,93,82,63,29.96,29.86,3,0,5,0.00
2012-10-10,87.2,77.0,68.3,75.8,70.3,63.9,92,81,62,30.00,29.91,4,1,7,0.00
2012-10-11,86.6,74.0,63.0,72.1,66.8,60.1,93,80,58,30.06,29.98,6,2,9,0.00
2012-10-12,85.2,73.9,64.9,70.5,65.7,62.2,92,77,53,30.07,29.99,6,1,11,0.00
2012-10-13,85.9,74.9,65.7,70.5,67.0,62.1,91,78,57,30.07,29.97,7,2,12,0.00
2012-10-14,87.9,77.2,68.8,74.6,70.3,65.7,91,80,60,30.01,29.88,6,2,10,0.00
2012-10-15,88.7,78.9,72.3,76.6,72.5,68.2,90,81,61,29.88,29.70,5,1,6,0.00
2012-10-16,88.2,76.6,67.1,75.6,69.2,64.4,93,79,57,29.77,29.67,2,0,6,0.00
2012-10-17,82.3,73.8,68.3,75.2,69.6,65.1,92,87,76,29.79,29.70,3,0,5,0.00
2012-10-18,87.7,75.1,66.3,79.4,70.7,63.6,93,87,73,29.80,29.69,5,1,8,0.85
2012-10-19,89.3,76.6,67.0,75.4,69.8,64.3,93,81,57,29.78,29.70,4,1,4,0.00
2012-10-20,85.9,74.1,60.3,68.4,63.9,55.1,92,73,50,29.87,29.74,5,1,8,0.01
2012-10-21,82.9,68.6,56.9,61.8,58.3,53.1,89,72,44,29.95,29.85,5,1,9,0.32
2012-10-22,84.8,72.4,62.5,68.9,64.1,59.1,90,76,57,29.97,29.87,6,2,11,0.00
2012-10-23,80.2,71.2,64.2,72.7,66.3,60.6,91,85,73,29.94,29.86,7,1,10,0.24
2012-10-24,86.6,75.9,65.9,72.5,68.3,62.6,91,79,56,29.91,29.79,7,2,10,0.00
2012-10-25,81.8,75.3,69.9,74.4,70.3,66.5,91,85,72,29.82,29.68,9,3,15,0.08
2012-10-26,84.2,77.5,70.4,70.9,68.5,66.3,91,75,58,29.66,29.49,11,7,14,0.00
2012-10-29,69.9,59.6,48.5,53.8,47.2,42.9,86,65,38,29.79,29.67,9,4,12,0.00
2012-10-30,67.7,54.6,41.4,51.7,45.1,37.8,89,72,44,29.88,29.75,11,3,14,0.19
2012-10-31,73.1,57.2,44.3,56.0,48.7,41.6,92,76,53,29.98,29.87,7,1,8,0.01
2012-11-1,76.3,62.3,49.5,65.9,56.7,46.1,93,83,66,29.95,29.84,8,1,10,0.30
2012-11-2,80.1,63.3,48.2,63.7,52.9,45.1,92,72,43,30.00,29.91,4,0,5,0.09
2012-11-3,84.8,58.7,46.7,67.9,40.7,-99.9,93,68,49,30.05,29.94,4,-104,5,0.33
2012-11-4,82.7,63.6,51.2,67.8,53.4,-99.9,93,76,49,30.03,29.89,4,-30,6,0.24
2012-11-5,77.8,66.8,58.8,68.9,61.4,55.3,93,84,64,29.92,29.82,5,0,5,0.00
2012-11-6,74.8,64.3,57.1,68.6,60.3,53.8,92,87,77,29.86,29.72,6,1,7,0.07
2012-11-7,68.2,57.2,44.9,55.2,49.9,41.3,92,78,56,29.91,29.76,9,3,11,0.01
2012-11-8,68.2,54.8,44.2,51.9,45.2,40.0,91,72,41,30.07,29.90,8,2,9,0.17
2012-11-9,74.8,57.0,39.2,58.3,48.1,35.9,91,74,48,30.14,30.06,6,1,6,0.28
2012-11-10,74.1,62.0,50.8,60.8,54.1,47.1,89,77,58,30.21,30.11,5,1,7,0.19
2012-11-11,79.5,65.9,54.7,66.3,59.4,51.3,92,81,58,30.19,30.10,5,1,5,0.20
2012-11-12,82.6,70.7,61.0,70.0,64.4,57.2,92,82,61,30.14,30.04,4,1,6,0.08
2012-11-13,79.2,69.1,61.4,69.7,63.8,58.4,93,84,64,30.08,29.98,3,0,6,0.10
2012-11-14,78.2,67.7,62.1,70.5,63.8,59.4,93,88,72,30.07,29.98,4,1,7,0.18
2012-11-15,74.7,66.1,62.2,67.5,62.8,59.2,93,89,77,30.05,29.97,5,1,6,0.04
2012-11-16,68.5,61.8,58.9,61.1,58.0,56.0,92,87,76,30.06,29.98,6,2,9,0.02
2012-11-17,79.6,67.4,58.6,66.3,61.4,56.0,92,82,61,30.04,29.95,5,2,8,0.05
2012-11-18,75.2,64.7,56.0,64.7,59.7,52.8,91,85,66,30.08,29.99,7,2,9,0.05
2012-11-19,61.2,54.7,44.7,56.7,51.2,41.9,92,88,84,30.07,29.97,4,1,9,0.04
2012-11-20,74.6,62.7,51.1,63.4,56.7,47.4,92,82,63,29.98,29.86,7,2,9,0.03
2012-11-21,72.2,58.4,48.4,58.1,50.4,44.5,92,77,46,30.00,29.88,8,2,11,0.03
2012-11-22,72.6,56.7,45.0,52.5,44.4,36.5,91,67,38,30.09,29.97,9,2,12,0.02
2012-11-23,72.2,54.3,40.6,49.0,42.0,36.7,87,67,34,30.12,29.99,6,1,7,0.03
2012-11-24,74.3,55.0,38.9,63.8,48.4,35.6,93,79,62,30.04,29.89,6,1,10,0.03
2012-11-25,72.6,51.6,37.0,53.2,42.2,34.0,92,74,36,30.08,29.98,4,1,4,0.02
2012-11-26,66.6,48.6,40.1,60.2,45.3,37.0,94,88,80,30.12,30.05,2,0,3,0.04
2012-11-27,81.4,61.2,51.9,67.7,49.2,-99.9,93,76,57,30.09,29.98,5,-62,10,0.12
2012-11-28,76.1,62.7,54.1,63.7,57.7,50.7,93,84,63,30.15,30.02,5,2,9,0.08
2012-11-29,79.1,63.0,52.4,64.3,56.8,49.9,93,81,59,30.16,30.08,6,2,10,0.04
2012-11-30,71.2,59.2,55.6,62.0,55.3,52.7,92,87,72,30.15,30.09,6,0,7,0.06
2012-12-1,79.2,65.5,55.4,65.2,59.3,52.5,92,81,58,30.15,30.05,7,1,10,0.04
2012-12-2,81.2,68.9,61.1,67.1,62.5,58.5,92,81,54,30.17,30.06,5,1,10,0.01
2012-12-3,80.9,69.3,58.6,67.7,60.9,54.0,91,76,50,30.17,30.07,5,1,11,0.03
2012-12-4,78.3,64.8,52.3,62.9,57.5,49.2,93,78,53,30.18,30.07,3,0,5,0.02
2012-12-5,79.1,66.3,51.7,66.8,59.2,48.2,93,79,61,30.08,29.93,3,0,5,0.02
2012-12-6,79.6,67.0,62.0,67.0,62.3,59.0,92,86,65,29.95,29.86,3,1,10,0.02
2012-12-7,81.0,67.5,60.0,69.9,63.1,57.7,93,86,67,29.92,29.81,2,0,4,0.01
2012-12-8,82.9,70.9,63.4,71.0,66.0,61.0,93,85,65,29.95,29.85,9,0,9,0.01
2012-12-9,84.6,71.7,62.4,73.4,66.1,59.1,93,84,59,30.00,29.90,3,0,7,0.58
2012-12-10,83.3,72.5,61.8,76.2,68.2,58.5,93,87,76,29.93,29.76,7,2,10,0.05
2012-12-11,81.8,73.3,66.8,76.1,69.9,64.1,92,89,82,29.97,29.80,5,1,8,0.23
2012-12-12,82.6,73.4,66.9,76.2,70.0,64.2,93,89,78,29.99,29.90,7,2,9,0.21
2012-12-13,72.4,65.3,55.6,69.9,61.8,52.8,92,88,80,30.08,29.94,8,3,13,0.01
2012-12-14,72.7,62.5,55.8,63.4,58.3,53.2,93,86,71,30.11,29.99,7,3,10,0.00
2012-12-15,78.3,65.4,56.6,67.7,60.0,54.0,93,84,62,30.05,29.94,4,1,5,0.00
2012-12-16,82.0,67.3,53.4,70.1,61.5,50.5,93,83,62,29.97,29.85,4,0,8,0.00
2012-12-17,82.5,68.7,57.4,70.2,62.7,54.8,93,82,62,29.89,29.78,8,2,10,0.00
2012-12-18,81.2,69.4,54.6,72.3,64.0,50.8,92,84,62,29.93,29.80,8,2,11,0.00
2012-12-19,80.5,57.6,40.0,60.0,48.3,37.1,93,75,37,30.02,29.93,3,0,7,0.15
2012-12-20,83.6,76.2,70.0,68.2,66.4,64.7,87,73,53,29.98,29.84,8,4,10,0.00
2012-12-21,63.3,57.3,47.4,47.7,40.8,35.1,83,56,37,30.10,29.99,10,6,14,0.16
2012-12-22,64.1,51.6,32.1,34.5,29.6,26.2,83,48,25,30.17,30.10,5,2,7,0.06
2012-12-23,72.7,60.9,38.2,51.3,46.3,35.8,92,61,34,30.17,30.04,3,0,3,0.12
2012-12-24,56.9,49.2,45.9,54.6,45.7,42.8,92,88,84,30.04,30.00,0,0,0,0.00